createdAt,value
2022-09-24T00:00:29.651Z,100930.50
2022-09-24T00:03:16.600Z,100926.38
2022-09-24T00:05:56.676Z,100928.13
2022-09-24T00:08:43.509Z,100929.75
2022-09-24T00:11:30.529Z,100920.47
2022-09-24T00:14:18.530Z,100912.00
2022-09-24T00:16:58.633Z,100918.00
2022-09-24T00:19:45.533Z,100915.06
2022-09-24T00:22:25.673Z,100913.03
2022-09-24T00:25:31.524Z,100913.84
2022-09-24T00:28:11.754Z,100912.22
2022-09-24T00:30:58.563Z,100910.56
2022-09-24T00:33:38.581Z,100908.94
2022-09-24T00:36:27.533Z,100911.38
2022-09-24T00:39:07.575Z,100907.31
2022-09-24T00:41:55.492Z,100913.13
2022-09-24T00:44:47.571Z,100901.09
2022-09-24T00:47:46.473Z,100902.72
2022-09-24T00:50:47.503Z,100900.47
2022-09-24T00:53:39.489Z,100907.41
2022-09-24T00:56:28.508Z,100909.34
2022-09-24T00:59:11.700Z,100896.06
2022-09-24T01:02:05.523Z,100899.25
2022-09-24T01:04:46.380Z,100901.47
2022-09-24T01:07:33.449Z,100894.34
2022-09-24T01:10:35.218Z,100892.50
2022-09-24T01:13:53.489Z,100889.22
2022-09-24T01:17:00.463Z,100891.56
2022-09-24T01:19:47.426Z,100889.44
2022-09-24T01:23:16.464Z,100890.03
2022-09-24T01:26:43.416Z,100896.69
2022-09-24T01:29:50.459Z,100893.09
2022-09-24T01:33:06.445Z,100894.75
2022-09-24T01:36:01.450Z,100889.31
2022-09-24T01:38:48.503Z,100896.75
2022-09-24T01:41:36.441Z,100896.22
2022-09-24T01:44:25.445Z,100893.28
2022-09-24T01:47:08.228Z,100901.53
2022-09-24T01:49:55.429Z,100900.00
2022-09-24T01:52:49.364Z,100901.41
2022-09-24T01:55:40.422Z,100904.78
2022-09-24T01:58:39.387Z,100907.03
2022-09-24T02:01:25.559Z,100900.22
2022-09-24T02:04:19.378Z,100906.28
2022-09-24T02:07:16.551Z,100896.22
2022-09-24T02:10:03.376Z,100896.53
2022-09-24T02:12:54.343Z,100908.56
2022-09-24T02:15:45.399Z,100902.88
2022-09-24T02:18:30.428Z,100903.97
2022-09-24T02:21:20.346Z,100904.19
2022-09-24T02:24:18.336Z,100909.31
2022-09-24T02:27:06.380Z,100908.88
2022-09-24T02:29:53.349Z,100907.84
2022-09-24T02:32:43.343Z,100905.09
2022-09-24T02:35:23.477Z,100908.88
2022-09-24T02:38:11.348Z,100910.72
2022-09-24T02:40:51.835Z,100915.47
2022-09-24T02:43:39.347Z,100914.38
2022-09-24T02:46:19.507Z,100915.81
2022-09-24T02:49:06.338Z,100925.31
2022-09-24T02:51:47.421Z,100923.91
2022-09-24T02:54:34.323Z,100929.53
2022-09-24T02:57:14.640Z,100924.38
2022-09-24T03:00:01.303Z,100922.03
2022-09-24T03:02:41.417Z,100922.69
2022-09-24T03:05:28.284Z,100926.06
2022-09-24T03:26:04.605Z,100933.78
2022-09-24T03:28:45.448Z,100946.19
2022-09-24T03:31:32.648Z,100951.25
2022-09-24T03:34:19.559Z,100945.28
2022-09-24T03:36:59.715Z,100949.06
2022-09-24T03:39:46.572Z,100943.03
2022-09-24T03:42:33.552Z,100939.97
2022-09-24T03:45:20.573Z,100953.66
2022-09-24T03:48:00.660Z,100952.44
2022-09-24T03:50:47.544Z,100948.03
2022-09-24T03:53:34.538Z,100949.47
2022-09-24T03:56:15.682Z,100943.13
2022-09-24T03:59:02.530Z,100953.31
2022-09-24T04:01:42.974Z,100956.06
2022-09-24T04:04:29.554Z,100957.41
2022-09-24T04:07:09.945Z,100962.41
2022-09-24T04:09:56.523Z,100964.94
2022-09-24T04:12:37.152Z,100975.72
2022-09-24T04:15:24.541Z,100980.09
2022-09-24T04:18:11.645Z,100985.91
2022-09-24T04:20:52.543Z,100987.31
2022-09-24T04:23:39.508Z,100998.13
2022-09-24T04:26:21.113Z,101002.88
2022-09-24T04:29:07.489Z,101001.69
2022-09-24T04:31:54.567Z,101008.44
2022-09-24T04:34:34.856Z,101004.16
2022-09-24T04:37:21.487Z,101008.38
2022-09-24T04:40:05.920Z,101008.31
2022-09-24T04:42:54.530Z,101012.41
2022-09-24T04:45:41.498Z,101011.38
2022-09-24T04:48:28.442Z,101015.47
2022-09-24T04:51:09.224Z,101016.31
2022-09-24T04:53:57.484Z,101020.97
2022-09-24T04:56:44.425Z,101019.03
2022-09-24T04:59:24.605Z,101022.41
2022-09-24T05:02:13.485Z,101022.00
2022-09-24T05:04:53.561Z,101025.41
2022-09-24T05:07:40.423Z,101017.81
2022-09-24T05:10:27.407Z,101022.47
2022-09-24T05:13:14.462Z,101019.41
2022-09-24T05:16:01.507Z,101024.91
2022-09-24T05:18:48.448Z,101021.19
2022-09-24T05:21:28.543Z,101022.56
2022-09-24T05:24:15.435Z,101027.78
2022-09-24T05:27:10.979Z,101023.03
2022-09-24T05:29:57.450Z,101024.28
2022-09-24T05:32:44.407Z,101022.53
2022-09-24T05:35:31.433Z,101030.72
2022-09-24T05:38:11.497Z,101026.38
2022-09-24T05:40:58.504Z,101023.34
2022-09-24T05:43:45.434Z,101031.72
2022-09-24T05:46:32.469Z,101032.47
2022-09-24T05:49:12.527Z,101034.25
2022-09-24T05:51:59.409Z,101038.72
2022-09-24T05:54:46.381Z,101039.09
2022-09-24T05:57:33.372Z,101046.31
2022-09-24T06:00:21.415Z,101051.03
2022-09-24T06:03:23.491Z,101057.03
2022-09-24T06:06:10.403Z,101060.34
2022-09-24T06:08:51.061Z,101062.34
2022-09-24T06:11:41.424Z,101055.03
2022-09-24T06:14:28.370Z,101066.81
2022-09-24T06:17:08.439Z,101069.56
2022-09-24T06:19:55.373Z,101073.88
2022-09-24T06:22:35.444Z,101070.25
2022-09-24T06:25:22.338Z,101076.03
2022-09-24T06:28:14.374Z,101072.22
2022-09-24T06:30:54.825Z,101086.25
2022-09-24T06:33:41.364Z,101073.28
2022-09-24T06:36:21.697Z,101082.78
2022-09-24T06:39:08.386Z,101084.41
2022-09-24T06:41:50.425Z,101087.72
2022-09-24T06:44:37.352Z,101073.13
2022-09-24T06:47:24.331Z,101081.72
2022-09-24T06:50:04.493Z,101087.22
2022-09-24T06:52:51.355Z,101092.81
2022-09-24T06:55:31.395Z,101081.03
2022-09-24T06:58:21.369Z,101096.34
2022-09-24T07:01:03.564Z,101079.88
2022-09-24T07:03:50.333Z,101090.44
2022-09-24T07:06:50.327Z,101093.25
2022-09-24T07:09:37.309Z,101083.88
2022-09-24T07:12:24.333Z,101084.41
2022-09-24T07:15:05.229Z,101090.06
2022-09-24T07:17:52.301Z,101087.78
2022-09-24T07:20:43.318Z,101088.56
2022-09-24T07:23:23.449Z,101097.13
2022-09-24T07:26:10.311Z,101087.47
2022-09-24T07:28:50.418Z,101085.69
2022-09-24T07:31:37.354Z,101084.81
2022-09-24T07:34:17.396Z,101084.13
2022-09-24T07:37:04.304Z,101080.25
2022-09-24T07:39:52.285Z,101071.81
2022-09-24T07:42:32.677Z,101079.09
2022-09-24T07:45:19.267Z,101075.94
2022-09-24T07:48:08.297Z,101083.78
2022-09-24T07:50:49.767Z,101085.47
2022-09-24T07:53:36.229Z,101076.72
2022-09-24T07:56:23.261Z,101092.00
2022-09-24T07:59:13.223Z,101088.50
2022-09-24T08:01:53.939Z,101091.59
2022-09-24T08:04:40.213Z,101091.59
2022-09-24T08:07:27.264Z,101091.53
2022-09-24T08:10:15.259Z,101103.72
2022-09-24T08:12:57.075Z,101092.34
2022-09-24T08:15:44.291Z,101095.44
2022-09-24T08:18:31.249Z,101101.38
2022-09-24T08:21:13.364Z,101105.13
2022-09-24T08:24:00.432Z,101099.19
2022-09-24T08:26:47.343Z,101098.03
2022-09-24T08:29:27.251Z,101087.94
2022-09-24T08:32:07.712Z,101087.25
2022-09-24T08:34:54.228Z,101093.03
2022-09-24T08:37:34.678Z,101081.31
2022-09-24T08:40:31.248Z,101073.72
2022-09-24T08:43:52.240Z,101083.56
2022-09-24T08:47:13.265Z,101076.78
2022-09-24T08:50:39.220Z,101079.69
2022-09-24T08:53:45.236Z,101080.41
2022-09-24T08:56:31.326Z,101064.88
2022-09-24T08:59:31.176Z,101068.16
2022-09-24T09:02:27.471Z,101078.25
2022-09-24T09:05:38.192Z,101077.25
2022-09-24T09:08:50.356Z,101068.16
2022-09-24T09:11:40.213Z,101071.69
2022-09-24T09:14:41.755Z,101067.22
2022-09-24T09:17:38.149Z,101068.72
2022-09-24T09:20:34.198Z,101074.09
2022-09-24T09:23:33.286Z,101068.25
2022-09-24T09:26:25.171Z,101063.91
2022-09-24T09:29:06.387Z,101058.53
2022-09-24T09:32:12.125Z,101066.28
2022-09-24T09:34:59.163Z,101063.69
2022-09-24T09:37:58.149Z,101065.22
2022-09-24T09:41:00.280Z,101051.84
2022-09-24T09:43:41.800Z,101057.66
2022-09-24T09:46:38.206Z,101055.88
2022-09-24T09:49:18.581Z,101057.13
2022-09-24T09:52:10.197Z,101044.25
2022-09-24T09:54:52.205Z,101044.00
2022-09-24T09:57:39.166Z,101034.28
2022-09-24T10:00:35.262Z,101037.28
2022-09-24T10:04:09.351Z,101026.59
2022-09-24T10:06:57.164Z,101041.97
2022-09-24T10:09:38.371Z,101035.28
2022-09-24T10:12:31.164Z,101040.38
2022-09-24T10:15:22.276Z,101031.69
2022-09-24T10:18:09.183Z,101037.13
2022-09-24T10:20:54.618Z,101035.59
2022-09-24T10:23:46.177Z,101044.28
2022-09-24T10:26:33.148Z,101052.34
2022-09-24T10:29:38.235Z,101045.13
2022-09-24T10:32:34.121Z,101047.66
2022-09-24T10:35:47.143Z,101035.50
2022-09-24T10:38:31.724Z,101046.75
2022-09-24T10:41:36.132Z,101038.22
2022-09-24T10:44:18.244Z,101035.38
2022-09-24T10:47:33.111Z,101031.69
2022-09-24T10:50:30.186Z,101028.41
2022-09-24T10:53:26.099Z,101028.56
2022-09-24T10:56:28.119Z,101030.00
2022-09-24T10:59:28.087Z,101028.66
2022-09-24T11:02:27.142Z,101034.41
2022-09-24T11:05:21.572Z,101039.66
2022-09-24T11:08:36.093Z,101041.66
2022-09-24T11:11:46.177Z,101037.72
2022-09-24T11:15:21.992Z,101026.50
2022-09-24T11:18:43.062Z,101025.72
2022-09-24T11:26:58.102Z,101023.75
2022-09-24T11:30:13.478Z,101020.81
2022-09-24T11:33:52.372Z,101021.09
2022-09-24T11:43:51.051Z,101012.25
2022-09-24T11:47:14.078Z,101008.44
2022-09-24T11:50:09.051Z,100996.56
2022-09-24T11:53:04.054Z,101002.63
2022-09-24T11:56:29.771Z,101002.75
2022-09-24T12:04:05.090Z,101015.78
2022-09-24T12:07:00.993Z,101005.47
2022-09-24T12:10:04.990Z,101000.50
2022-09-24T12:12:50.202Z,101006.22
2022-09-24T12:15:34.027Z,101008.09
2022-09-24T12:18:57.030Z,101002.41
2022-09-24T12:21:48.012Z,101005.22
2022-09-24T12:24:41.024Z,101006.34
2022-09-24T12:27:45.012Z,101006.13
2022-09-24T12:31:00.243Z,101007.53
2022-09-24T12:34:09.025Z,101006.09
2022-09-24T12:37:05.987Z,101013.56
2022-09-24T12:39:57.728Z,100998.28
2022-09-24T12:42:57.012Z,101004.03
2022-09-24T12:45:37.089Z,100995.31
2022-09-24T12:48:31.992Z,100996.72
2022-09-24T12:51:21.010Z,100998.50
2022-09-24T12:54:34.992Z,100999.53
2022-09-24T12:57:27.057Z,100999.03
2022-09-24T13:00:38.948Z,100994.16
2022-09-24T13:03:37.109Z,100996.22
2022-09-24T13:06:43.944Z,101006.50
2022-09-24T13:09:42.947Z,101008.41
2022-09-24T13:12:33.249Z,101003.97
2022-09-24T13:15:35.056Z,101013.19
2022-09-24T13:18:25.130Z,101015.50
2022-09-24T13:21:17.962Z,101016.53
2022-09-24T13:23:58.464Z,101011.34
2022-09-24T13:26:46.899Z,101010.59
2022-09-24T13:29:44.963Z,101004.00
2022-09-24T13:32:35.943Z,100994.06
2022-09-24T13:35:29.364Z,100993.28
2022-09-24T13:38:30.919Z,100991.22
2022-09-24T13:41:32.897Z,101002.44
2022-09-24T13:44:29.999Z,101002.28
2022-09-24T13:47:49.939Z,101000.75
2022-09-24T13:50:38.894Z,100999.81
2022-09-24T13:53:45.349Z,100996.69
2022-09-24T13:56:32.926Z,100996.47
2022-09-24T13:59:17.998Z,100999.00
2022-09-24T14:02:04.926Z,101005.91
2022-09-24T14:04:52.916Z,101005.56
2022-09-24T14:07:39.987Z,100997.53
2022-09-24T14:10:20.973Z,101001.34
2022-09-24T14:13:30.953Z,101004.28
2022-09-24T14:16:16.307Z,101005.03
2022-09-24T14:19:12.915Z,101007.09
2022-09-24T14:22:03.875Z,101005.31
2022-09-24T14:24:59.886Z,101000.94
2022-09-24T14:28:01.887Z,101001.38
2022-09-24T14:30:55.534Z,100997.91
2022-09-24T14:33:46.899Z,101006.06
2022-09-24T14:36:29.318Z,101008.97
2022-09-24T14:39:18.889Z,101005.84
2022-09-24T14:41:59.322Z,101005.91
2022-09-24T14:44:45.842Z,101007.22
2022-09-24T14:47:29.086Z,101011.53
2022-09-24T14:50:16.815Z,101006.47
2022-09-24T14:53:04.870Z,101007.19
2022-09-24T14:55:49.793Z,101013.19
2022-09-24T14:58:36.847Z,101021.84
2022-09-24T15:01:32.927Z,101022.25
2022-09-24T15:04:29.862Z,101018.13
2022-09-24T15:07:09.916Z,101026.84
2022-09-24T15:10:02.969Z,101018.84
2022-09-24T15:28:03.505Z,101028.78
2022-09-24T15:30:44.924Z,101028.88
2022-09-24T15:33:31.470Z,101030.94
2022-09-24T15:36:18.487Z,101031.94
2022-09-24T15:39:06.522Z,101035.81
2022-09-24T15:41:47.055Z,101044.72
2022-09-24T15:44:39.519Z,101043.28
2022-09-24T15:47:26.567Z,101033.28
2022-09-24T15:50:06.520Z,101033.00
2022-09-24T15:52:51.597Z,101033.59
2022-09-24T15:55:38.462Z,101039.16
2022-09-24T15:58:19.744Z,101040.25
2022-09-24T16:01:06.492Z,101046.91
2022-09-24T16:03:46.910Z,101040.03
2022-09-24T16:06:33.477Z,101038.59
2022-09-24T16:09:20.499Z,101050.28
2022-09-24T16:12:01.073Z,101038.13
2022-09-24T16:14:47.464Z,101034.94
2022-09-24T16:17:27.672Z,101039.53
2022-09-24T16:20:16.458Z,101046.91
2022-09-24T16:22:56.555Z,101046.50
2022-09-24T16:25:43.465Z,101048.50
2022-09-24T16:28:30.477Z,101051.22
2022-09-24T16:31:10.862Z,101050.00
2022-09-24T16:33:57.424Z,101053.72
2022-09-24T16:36:38.332Z,101054.19
2022-09-24T16:39:26.441Z,101061.19
2022-09-24T16:42:06.795Z,101057.13
2022-09-24T16:44:56.410Z,101063.09
2022-09-24T16:47:43.451Z,101057.75
2022-09-24T16:50:33.406Z,101054.16
2022-09-24T16:53:13.759Z,101048.91
2022-09-24T16:56:00.429Z,101059.34
2022-09-24T16:58:57.429Z,101071.69
2022-09-24T17:01:46.590Z,101075.34
2022-09-24T17:04:34.259Z,101077.22
2022-09-24T17:07:14.811Z,101072.22
2022-09-24T17:10:19.442Z,101078.81
2022-09-24T17:13:07.527Z,101081.66
2022-09-24T17:15:47.650Z,101095.13
2022-09-24T17:18:34.399Z,101099.25
2022-09-24T17:21:18.075Z,101098.63
2022-09-24T17:24:04.373Z,101105.00
2022-09-24T17:26:58.406Z,101105.56
2022-09-24T17:29:38.746Z,101107.59
2022-09-24T17:32:25.391Z,101107.47
2022-09-24T17:35:07.932Z,101113.09
2022-09-24T17:37:54.380Z,101111.47
2022-09-24T17:40:34.779Z,101107.06
2022-09-24T17:43:21.355Z,101111.47
2022-09-24T17:46:13.875Z,101100.06
2022-09-24T17:48:59.561Z,101108.97
2022-09-24T17:51:46.309Z,101117.13
2022-09-24T17:54:33.343Z,101116.34
2022-09-24T17:57:21.248Z,101120.41
2022-09-24T18:00:01.348Z,101119.72
2022-09-24T18:02:51.372Z,101123.19
2022-09-24T18:05:31.491Z,101118.72
2022-09-24T18:08:18.323Z,101118.03
2022-09-24T18:11:15.316Z,101123.03
2022-09-24T18:14:12.326Z,101128.94
2022-09-24T18:16:52.932Z,101127.66
2022-09-24T18:19:39.366Z,101126.91
2022-09-24T18:22:26.336Z,101135.22
2022-09-24T18:25:07.227Z,101129.50
2022-09-24T18:27:54.310Z,101128.69
2022-09-24T18:30:34.413Z,101131.59
2022-09-24T18:33:22.325Z,101130.13
2022-09-24T18:36:09.310Z,101135.47
2022-09-24T18:38:49.882Z,101134.31
2022-09-24T18:41:42.546Z,101134.31
2022-09-24T18:44:22.714Z,101134.31
2022-09-24T18:47:09.437Z,101121.75
2022-09-24T18:49:56.293Z,101130.06
2022-09-24T18:52:43.328Z,101136.28
2022-09-24T18:55:23.666Z,101140.75
2022-09-24T18:58:12.294Z,101147.63
2022-09-24T19:01:04.409Z,101142.66
2022-09-24T19:03:46.269Z,101146.09
2022-09-24T19:06:28.134Z,101147.91
2022-09-24T19:09:15.256Z,101150.41
2022-09-24T19:11:56.085Z,101145.69
2022-09-24T19:14:43.244Z,101142.75
2022-09-24T19:17:23.936Z,101142.00
2022-09-24T19:20:11.327Z,101138.06
2022-09-24T19:22:59.941Z,101147.06
2022-09-24T19:25:50.230Z,101142.19
2022-09-24T19:28:37.382Z,101137.28
2022-09-24T19:31:43.276Z,101144.44
2022-09-24T19:34:23.712Z,101140.22
2022-09-24T19:37:10.262Z,101139.88
2022-09-24T19:39:51.007Z,101147.75
2022-09-24T19:42:38.219Z,101144.81
2022-09-24T19:45:18.662Z,101140.56
2022-09-24T19:48:06.225Z,101151.50
2022-09-24T19:50:46.625Z,101150.22
2022-09-24T19:53:34.210Z,101146.47
2022-09-24T19:56:23.285Z,101149.41
2022-09-24T19:59:12.204Z,101153.84
2022-09-24T20:01:52.700Z,101150.25
2022-09-24T20:04:41.205Z,101155.50
2022-09-24T20:07:28.215Z,101155.66
2022-09-24T20:10:08.325Z,101158.56
2022-09-24T20:12:58.194Z,101159.06
2022-09-24T20:15:45.233Z,101144.84
2022-09-24T20:18:25.969Z,101159.69
2022-09-24T20:21:19.228Z,101155.47
2022-09-24T20:24:08.304Z,101155.28
2022-09-24T20:27:06.735Z,101147.13
2022-09-24T20:29:55.179Z,101165.53
2022-09-24T20:32:35.287Z,101165.00
2022-09-24T20:35:22.203Z,101166.00
2022-09-24T20:38:02.308Z,101167.78
2022-09-24T20:40:50.184Z,101165.16
2022-09-24T20:43:32.166Z,101160.44
2022-09-24T20:46:23.221Z,101170.38
2022-09-24T20:49:13.166Z,101165.63
2022-09-24T20:51:57.386Z,101165.31
2022-09-24T20:54:44.094Z,101162.72
2022-09-24T20:57:31.167Z,101163.34
2022-09-24T21:00:14.506Z,101162.72
2022-09-24T21:03:10.735Z,101161.25
2022-09-24T21:06:13.147Z,101171.53
2022-09-24T21:09:00.142Z,101170.19
2022-09-24T21:11:48.138Z,101164.00
2022-09-24T21:14:28.980Z,101170.47
2022-09-24T21:17:17.104Z,101168.50
2022-09-24T21:20:04.674Z,101167.50
2022-09-24T21:22:45.162Z,101168.00
2022-09-24T21:25:52.361Z,101173.00
2022-09-24T21:28:32.145Z,101156.19
2022-09-24T21:31:14.097Z,101161.16
2022-09-24T21:34:03.138Z,101160.13
2022-09-24T21:36:52.224Z,101169.91
2022-09-24T21:39:32.209Z,101154.59
2022-09-24T21:42:19.101Z,101157.66
2022-09-24T21:44:59.156Z,101162.56
2022-09-24T21:47:46.101Z,101161.41
2022-09-24T21:50:26.764Z,101148.06
2022-09-24T21:53:15.079Z,101143.75
2022-09-24T21:55:55.166Z,101143.59
2022-09-24T21:58:42.087Z,101137.47
2022-09-24T22:01:28.325Z,101143.69
2022-09-24T22:04:15.086Z,101137.50
2022-09-24T22:06:55.222Z,101135.59
2022-09-24T22:09:42.017Z,101137.03
2022-09-24T22:12:29.043Z,101134.41
2022-09-24T22:15:17.042Z,101138.81
2022-09-24T22:18:04.024Z,101139.63
2022-09-24T22:20:51.107Z,101137.03
2022-09-24T22:23:31.174Z,101139.81
2022-09-24T22:26:20.054Z,101141.44
2022-09-24T22:29:08.150Z,101140.22
2022-09-24T22:31:48.014Z,101142.84
2022-09-24T22:34:47.218Z,101140.03
2022-09-24T22:37:34.024Z,101140.53
2022-09-24T22:40:22.097Z,101146.22
2022-09-24T22:43:02.081Z,101138.56
2022-09-24T22:45:50.040Z,101141.97
2022-09-24T22:48:30.131Z,101139.78
2022-09-24T22:51:16.977Z,101139.38
2022-09-24T22:54:04.113Z,101132.91
2022-09-24T22:56:50.994Z,101137.97
2022-09-24T22:59:37.995Z,101135.00
2022-09-24T23:02:24.950Z,101125.25
2022-09-24T23:05:12.050Z,101139.38
2022-09-24T23:07:58.984Z,101131.72
2022-09-24T23:10:39.078Z,101132.31
2022-09-24T23:13:25.980Z,101136.13
2022-09-24T23:16:15.093Z,101138.88
2022-09-24T23:19:03.980Z,101136.00
2022-09-24T23:21:44.228Z,101135.31
2022-09-24T23:24:30.983Z,101129.72
2022-09-24T23:27:24.959Z,101133.28
2022-09-24T23:30:06.031Z,101130.03
2022-09-24T23:32:52.941Z,101124.81
2022-09-24T23:35:33.311Z,101124.00
2022-09-24T23:38:19.942Z,101124.16
2022-09-24T23:41:00.790Z,101114.16
2022-09-24T23:43:47.937Z,101112.31
2022-09-24T23:46:34.979Z,101120.91
2022-09-24T23:49:22.040Z,101119.78
2022-09-24T23:52:08.956Z,101116.94
2022-09-24T23:54:55.879Z,101114.50
2022-09-24T23:57:36.334Z,101114.81
